Time;durP1;ratioP1;P1;durP2;ratioP2;P2;SDS_P1;SDS_P2;PMS_P1;PMS_P2;Temp;Humidity;BMP_temperature;BMP_pressure;BME280_temperature;BME280_humidity;BME280_pressure;Samples;Min_cycle;Max_cycle;Signal;HPM_P1;HPM_P2
2023/12/10 00:01:50;;;;;;;7.72;7.03;;;22.40;70.50;;;;;;6215722;28;94116;-62
2023/12/10 00:04:52;;;;;;;8.60;7.57;;;22.40;70.50;;;;;;6220391;28;94065;-62
2023/12/10 00:07:54;;;;;;;9.20;8.10;;;22.40;70.40;;;;;;6231674;28;94104;-62
2023/12/10 00:10:56;;;;;;;8.70;7.80;;;22.40;70.30;;;;;;6219500;28;94094;-62
2023/12/10 00:14:01;;;;;;;7.97;7.18;;;22.40;70.30;;;;;;6219415;28;93452;-62
2023/12/10 00:17:03;;;;;;;8.60;7.65;;;22.40;70.30;;;;;;6220436;28;94190;-62
2023/12/10 00:20:06;;;;;;;8.48;7.35;;;22.40;70.30;;;;;;6242578;28;94091;-62
2023/12/10 00:23:11;;;;;;;8.65;7.85;;;22.40;70.30;;;;;;6233710;28;95043;-62
2023/12/10 00:26:13;;;;;;;8.65;7.47;;;22.40;70.30;;;;;;6238859;28;94038;-62
2023/12/10 00:29:17;;;;;;;8.18;7.30;;;22.40;70.30;;;;;;6219455;28;94438;-62
2023/12/10 00:32:19;;;;;;;7.50;6.70;;;22.40;70.30;;;;;;6223121;28;94105;-62
2023/12/10 00:35:21;;;;;;;8.60;7.80;;;22.40;70.30;;;;;;6224822;28;94014;-62
2023/12/10 00:38:23;;;;;;;7.75;6.97;;;22.30;70.20;;;;;;6230104;28;94094;-62
2023/12/10 00:41:25;;;;;;;8.10;7.30;;;22.40;70.30;;;;;;6229061;28;94105;-62
2023/12/10 00:44:29;;;;;;;8.18;7.32;;;22.30;70.30;;;;;;6229758;28;93938;-62
2023/12/10 00:47:31;;;;;;;7.82;7.05;;;22.30;70.30;;;;;;6228321;28;94068;-62
2023/12/10 00:50:33;;;;;;;7.88;7.07;;;22.30;70.30;;;;;;6232623;28;94062;-62
2023/12/10 00:53:35;;;;;;;7.80;7.10;;;22.30;70.30;;;;;;6235842;28;95128;-61
2023/12/10 00:56:37;;;;;;;8.73;7.45;;;22.30;70.30;;;;;;6229025;28;94172;-62
2023/12/10 00:59:41;;;;;;;7.35;6.65;;;22.30;70.30;;;;;;6237493;28;94359;-61
2023/12/10 01:02:43;;;;;;;7.53;6.72;;;22.30;70.30;;;;;;6216486;28;94044;-62
2023/12/10 01:05:45;;;;;;;8.38;7.15;;;22.30;70.30;;;;;;6235360;28;94090;-62
2023/12/10 01:08:47;;;;;;;8.18;6.68;;;22.30;70.30;;;;;;6227574;28;94201;-61
2023/12/10 01:11:49;;;;;;;8.05;7.05;;;22.30;70.30;;;;;;6227793;28;94536;-62
2023/12/10 01:14:52;;;;;;;7.30;6.50;;;22.30;70.30;;;;;;6211275;28;93404;-61
2023/12/10 01:17:54;;;;;;;7.47;6.78;;;22.20;70.30;;;;;;6218464;28;93934;-62
2023/12/10 01:20:56;;;;;;;7.82;7.03;;;22.30;70.30;;;;;;6227073;28;94050;-62
2023/12/10 01:24:00;;;;;;;8.13;7.32;;;22.30;70.30;;;;;;6221421;28;95028;-61
2023/12/10 01:27:02;;;;;;;7.35;6.65;;;22.20;70.30;;;;;;6211147;28;94364;-62
2023/12/10 01:30:07;;;;;;;7.50;6.80;;;22.20;70.30;;;;;;6203909;28;93193;-61
2023/12/10 01:33:10;;;;;;;9.13;6.97;;;22.20;70.30;;;;;;6204326;28;94102;-62
2023/12/10 01:36:22;;;;;;;8.40;6.78;;;22.20;70.40;;;;;;6217894;28;94141;-61
2023/12/10 01:39:25;;;;;;;8.10;6.75;;;22.20;70.40;;;;;;6213214;28;94013;-62
2023/12/10 01:42:27;;;;;;;8.02;6.80;;;22.20;70.40;;;;;;6213155;28;94286;-62
2023/12/10 01:45:31;;;;;;;7.13;6.43;;;22.20;70.40;;;;;;6222609;28;93441;-62
2023/12/10 01:48:34;;;;;;;6.68;5.97;;;22.20;70.40;;;;;;6217891;28;94386;-62
2023/12/10 01:51:37;;;;;;;7.38;6.68;;;22.20;70.40;;;;;;6216204;28;94000;-61
2023/12/10 01:54:39;;;;;;;6.80;6.10;;;22.20;70.50;;;;;;6226196;28;93935;-62
2023/12/10 01:57:42;;;;;;;7.00;6.30;;;22.20;70.50;;;;;;6223839;28;94041;-62
2023/12/10 02:00:45;;;;;;;7.07;6.38;;;22.20;70.50;;;;;;6222156;28;94122;-61
2023/12/10 02:03:47;;;;;;;8.45;6.47;;;22.20;70.50;;;;;;6226980;28;94524;-62
2023/12/10 02:06:50;;;;;;;6.60;5.88;;;22.20;70.40;;;;;;6209527;28;94337;-61
2023/12/10 02:09:52;;;;;;;6.55;5.90;;;22.20;70.40;;;;;;6215029;28;94126;-62
2023/12/10 02:12:55;;;;;;;7.68;6.75;;;22.20;70.40;;;;;;6222508;28;94195;-61
2023/12/10 02:15:58;;;;;;;6.47;5.85;;;22.20;70.50;;;;;;6214971;28;93387;-61
2023/12/10 02:19:01;;;;;;;6.68;6.00;;;22.20;70.50;;;;;;6220571;28;94082;-61
2023/12/10 02:22:04;;;;;;;6.35;5.75;;;22.20;70.50;;;;;;6232472;28;94032;-62
2023/12/10 02:25:09;;;;;;;7.50;6.28;;;22.10;70.50;;;;;;6227403;28;95140;-61
2023/12/10 02:28:16;;;;;;;6.32;5.72;;;22.10;70.50;;;;;;6216053;28;94065;-62
2023/12/10 02:31:19;;;;;;;6.70;6.00;;;22.10;70.50;;;;;;6207851;28;94195;-62
2023/12/10 02:34:23;;;;;;;5.75;5.20;;;22.10;70.50;;;;;;6220266;28;94018;-62
2023/12/10 02:37:25;;;;;;;6.20;5.60;;;22.10;70.50;;;;;;6207518;28;94088;-62
2023/12/10 02:40:27;;;;;;;8.35;6.07;;;22.10;70.60;;;;;;6219783;28;94051;-61
2023/12/10 02:43:31;;;;;;;7.40;5.85;;;22.10;70.60;;;;;;6203802;28;94522;-62
2023/12/10 02:46:33;;;;;;;7.13;6.10;;;22.10;70.60;;;;;;6220200;28;93736;-62
2023/12/10 02:49:35;;;;;;;6.15;5.55;;;22.10;70.60;;;;;;6225414;28;94505;-62
2023/12/10 02:52:37;;;;;;;6.25;5.65;;;22.10;70.60;;;;;;6230832;28;94098;-62
2023/12/10 02:55:39;;;;;;;6.78;5.40;;;22.00;70.60;;;;;;6217879;28;95232;-62
2023/12/10 02:58:43;;;;;;;6.60;5.72;;;22.00;70.60;;;;;;6230799;28;94158;-62
2023/12/10 03:01:45;;;;;;;5.75;5.20;;;22.00;70.60;;;;;;6213131;28;94238;-62
2023/12/10 03:04:47;;;;;;;5.75;5.22;;;22.00;70.70;;;;;;6213775;28;92994;-62
2023/12/10 03:07:49;;;;;;;5.97;4.90;;;22.00;70.60;;;;;;6226033;28;92258;-62
2023/12/10 03:10:51;;;;;;;5.75;5.15;;;22.00;70.60;;;;;;6222942;28;94051;-62
2023/12/10 03:13:54;;;;;;;6.13;5.07;;;22.00;70.60;;;;;;6231150;28;94257;-62
2023/12/10 03:16:56;;;;;;;5.47;4.97;;;22.00;70.60;;;;;;6218290;28;93398;-62
2023/12/10 03:19:58;;;;;;;5.25;4.75;;;22.00;70.70;;;;;;6210786;28;94050;-62
2023/12/10 03:23:01;;;;;;;5.55;5.05;;;21.90;70.70;;;;;;6220487;28;93188;-62
2023/12/10 03:26:04;;;;;;;5.63;5.00;;;22.00;70.70;;;;;;6233246;28;95087;-62
2023/12/10 03:29:07;;;;;;;5.32;4.70;;;21.90;71.50;;;;;;6217828;28;94053;-62
2023/12/10 03:32:09;;;;;;;5.43;4.72;;;21.90;70.60;;;;;;6223716;28;94071;-62
2023/12/10 03:35:11;;;;;;;5.05;4.50;;;22.00;70.70;;;;;;6215754;28;94096;-62
2023/12/10 03:38:13;;;;;;;5.93;4.60;;;21.90;70.60;;;;;;6226458;28;94402;-62
2023/12/10 03:41:15;;;;;;;5.93;4.72;;;21.90;70.60;;;;;;6226163;28;94480;-62
2023/12/10 03:44:19;;;;;;;5.13;4.50;;;22.00;70.60;;;;;;6225892;28;94310;-62
2023/12/10 03:47:21;;;;;;;5.13;4.57;;;21.90;70.50;;;;;;6230356;28;92248;-62
2023/12/10 03:50:23;;;;;;;5.40;4.68;;;22.00;70.50;;;;;;6217845;28;94221;-62
2023/12/10 03:53:25;;;;;;;4.93;4.43;;;22.00;70.50;;;;;;6228695;28;94140;-62
2023/12/10 03:56:27;;;;;;;4.72;4.20;;;21.90;70.50;;;;;;6221196;28;95266;-62
2023/12/10 03:59:31;;;;;;;5.30;4.45;;;21.90;70.50;;;;;;6229876;28;94179;-62
2023/12/10 04:02:33;;;;;;;6.35;4.97;;;21.90;70.50;;;;;;6229531;28;94072;-62
2023/12/10 04:05:35;;;;;;;5.82;4.57;;;21.90;70.50;;;;;;6240311;28;94407;-62
2023/12/10 04:08:37;;;;;;;5.07;4.22;;;21.90;70.50;;;;;;6225221;28;94398;-62
2023/12/10 04:11:39;;;;;;;5.47;4.50;;;21.90;71.40;;;;;;6203814;28;94035;-62
2023/12/10 04:14:46;;;;;;;4.50;4.03;;;21.90;70.60;;;;;;6222525;28;94196;-62
2023/12/10 04:17:48;;;;;;;4.22;3.85;;;21.90;70.50;;;;;;6230357;28;93257;-62
2023/12/10 04:20:50;;;;;;;4.68;4.25;;;21.90;70.60;;;;;;6228713;28;93895;-62
2023/12/10 04:23:52;;;;;;;4.40;3.97;;;21.90;70.50;;;;;;6223848;28;93318;-62
2023/12/10 04:26:54;;;;;;;4.32;3.83;;;21.90;70.50;;;;;;6224462;28;97159;-62
2023/12/10 04:29:58;;;;;;;5.32;3.85;;;21.90;70.60;;;;;;6213042;28;94076;-62
2023/12/10 04:33:00;;;;;;;6.80;4.35;;;21.90;70.60;;;;;;6206593;28;94276;-62
2023/12/10 04:36:02;;;;;;;5.28;4.22;;;21.90;70.60;;;;;;6229448;28;94363;-62
2023/12/10 04:39:04;;;;;;;4.18;3.58;;;21.90;70.60;;;;;;6210402;28;92915;-62
2023/12/10 04:42:06;;;;;;;4.15;3.60;;;21.80;70.60;;;;;;6219780;28;94055;-62
2023/12/10 04:45:10;;;;;;;3.67;3.30;;;21.80;70.60;;;;;;6216097;28;94409;-62
2023/12/10 04:48:13;;;;;;;4.10;3.70;;;21.80;70.70;;;;;;6229321;28;93446;-62
2023/12/10 04:51:15;;;;;;;4.50;3.63;;;21.90;70.70;;;;;;6228809;28;94378;-62
2023/12/10 04:54:17;;;;;;;3.95;3.42;;;21.90;70.70;;;;;;6228675;28;94096;-62
2023/12/10 04:57:19;;;;;;;4.05;3.65;;;21.90;70.70;;;;;;6225026;28;95185;-62
2023/12/10 05:00:23;;;;;;;4.57;3.67;;;21.90;70.80;;;;;;6221913;28;94133;-62
2023/12/10 05:03:25;;;;;;;5.38;3.72;;;21.90;70.80;;;;;;6213447;28;94052;-62
2023/12/10 05:06:27;;;;;;;4.53;3.53;;;21.80;70.70;;;;;;6221280;28;94076;-62
2023/12/10 05:09:29;;;;;;;3.63;3.25;;;21.80;70.80;;;;;;6220171;28;93187;-62
2023/12/10 05:12:31;;;;;;;4.13;3.50;;;21.80;70.80;;;;;;6217636;28;94026;-62
2023/12/10 05:15:34;;;;;;;4.70;3.33;;;21.80;70.80;;;;;;6228807;28;94120;-62
2023/12/10 05:18:36;;;;;;;3.55;3.25;;;21.80;70.80;;;;;;6221834;28;93752;-62
2023/12/10 05:21:38;;;;;;;3.95;3.28;;;21.80;70.80;;;;;;6225636;28;93333;-62
2023/12/10 05:24:40;;;;;;;3.53;3.00;;;21.80;71.00;;;;;;6227957;28;94052;-62
2023/12/10 05:27:42;;;;;;;4.95;3.67;;;21.80;70.90;;;;;;6227484;28;95135;-62
2023/12/10 05:30:46;;;;;;;4.32;3.42;;;21.80;70.90;;;;;;6228224;28;94072;-62
2023/12/10 05:33:48;;;;;;;4.78;3.30;;;21.80;70.90;;;;;;6228078;28;94038;-62
2023/12/10 05:36:50;;;;;;;3.63;3.00;;;21.90;71.00;;;;;;6228343;28;94228;-62
2023/12/10 05:39:52;;;;;;;3.60;2.88;;;21.90;71.00;;;;;;6228717;28;94104;-62
2023/12/10 05:42:55;;;;;;;3.53;2.85;;;21.80;71.00;;;;;;6228639;28;94482;-62
2023/12/10 05:45:58;;;;;;;3.55;3.00;;;21.80;71.00;;;;;;6223254;28;94109;-62
2023/12/10 05:49:01;;;;;;;4.40;3.10;;;21.80;70.90;;;;;;6223955;28;93598;-62
2023/12/10 05:52:04;;;;;;;4.35;3.17;;;21.90;71.00;;;;;;6227053;28;94107;-62
2023/12/10 05:55:07;;;;;;;3.10;2.72;;;21.90;71.00;;;;;;6223065;28;94451;-62
2023/12/10 05:58:09;;;;;;;3.78;2.85;;;21.90;71.00;;;;;;6226445;28;95156;-62
2023/12/10 06:01:13;;;;;;;4.07;2.90;;;21.90;71.00;;;;;;6226251;28;94213;-62
2023/12/10 06:04:15;;;;;;;4.32;3.03;;;21.90;71.00;;;;;;6227435;28;94298;-62
2023/12/10 06:07:17;;;;;;;4.18;2.97;;;21.90;71.00;;;;;;6236350;28;94271;-62
2023/12/10 06:10:20;;;;;;;3.65;2.92;;;21.90;71.00;;;;;;6221694;28;94192;-62
2023/12/10 06:13:22;;;;;;;4.65;3.00;;;21.90;71.00;;;;;;6227930;28;94198;-62
2023/12/10 06:16:26;;;;;;;4.78;2.88;;;21.80;71.00;;;;;;6214270;28;94191;-62
2023/12/10 06:19:28;;;;;;;2.85;2.58;;;21.80;71.00;;;;;;6215785;28;93385;-62
2023/12/10 06:22:30;;;;;;;4.07;2.90;;;21.90;71.10;;;;;;6226337;28;93886;-62
2023/12/10 06:25:32;;;;;;;4.28;2.90;;;21.90;71.00;;;;;;6225861;28;94130;-62
2023/12/10 06:28:34;;;;;;;4.30;2.72;;;21.90;71.00;;;;;;6213922;28;95172;-62
2023/12/10 06:31:37;;;;;;;4.20;2.92;;;21.90;71.00;;;;;;6226503;28;94166;-62
2023/12/10 06:34:39;;;;;;;5.10;3.05;;;21.90;70.90;;;;;;6224618;28;94176;-62
2023/12/10 06:37:41;;;;;;;3.88;2.80;;;21.90;70.90;;;;;;6202942;28;94185;-62
2023/12/10 06:40:44;;;;;;;3.00;2.60;;;21.90;70.90;;;;;;6210630;28;94491;-63
2023/12/10 06:43:46;;;;;;;3.08;2.55;;;21.90;70.90;;;;;;6217720;28;94040;-62
2023/12/10 06:46:50;;;;;;;3.45;2.60;;;21.90;70.90;;;;;;6217366;28;95553;-62
2023/12/10 06:49:53;;;;;;;2.95;2.20;;;21.90;70.90;;;;;;6236084;28;93395;-62
2023/12/10 06:52:55;;;;;;;3.83;2.58;;;21.90;70.90;;;;;;6226887;28;94019;-62
2023/12/10 06:55:57;;;;;;;4.10;2.70;;;21.90;71.00;;;;;;6226578;28;94191;-62
2023/12/10 06:58:59;;;;;;;3.88;2.40;;;21.90;71.00;;;;;;6226055;28;95016;-62
2023/12/10 07:02:02;;;;;;;4.32;2.80;;;21.90;70.90;;;;;;6226946;28;94381;-62
2023/12/10 07:05:05;;;;;;;4.65;2.78;;;21.90;71.00;;;;;;6225997;28;94353;-62
2023/12/10 07:08:07;;;;;;;3.22;2.28;;;21.90;71.00;;;;;;6207140;28;94381;-62
2023/12/10 07:11:10;;;;;;;2.85;2.40;;;21.90;71.00;;;;;;6218793;28;94173;-62
2023/12/10 07:14:12;;;;;;;2.80;2.30;;;21.90;71.00;;;;;;6230656;28;94205;-62
2023/12/10 07:17:16;;;;;;;3.40;2.40;;;21.90;71.10;;;;;;6230532;28;94097;-62
2023/12/10 07:20:18;;;;;;;3.05;2.30;;;21.90;71.00;;;;;;6230680;28;93500;-62
2023/12/10 07:23:20;;;;;;;4.10;2.60;;;21.90;71.10;;;;;;6228820;28;94328;-62
2023/12/10 07:26:23;;;;;;;3.95;2.50;;;21.90;71.10;;;;;;6229986;28;94084;-62
2023/12/10 07:29:26;;;;;;;4.45;2.50;;;21.90;71.10;;;;;;6229168;28;95357;-62
2023/12/10 07:32:29;;;;;;;3.50;2.40;;;21.90;71.00;;;;;;6230463;28;94053;-62
2023/12/10 07:35:31;;;;;;;3.20;2.17;;;21.90;71.10;;;;;;6232153;28;94124;-62
2023/12/10 07:38:33;;;;;;;3.80;2.38;;;21.90;71.00;;;;;;6230374;28;94641;-62
2023/12/10 07:41:35;;;;;;;4.18;2.47;;;21.90;71.10;;;;;;6229503;28;93988;-62
2023/12/10 07:44:37;;;;;;;3.40;2.28;;;22.00;71.10;;;;;;6238472;28;94111;-62
2023/12/10 07:47:41;;;;;;;2.83;2.15;;;21.90;71.00;;;;;;6231277;28;94036;-62
2023/12/10 07:50:43;;;;;;;3.45;2.33;;;21.90;71.00;;;;;;6231899;28;93378;-62
2023/12/10 07:53:45;;;;;;;5.85;3.00;;;22.00;71.10;;;;;;6224734;28;94664;-62
2023/12/10 07:56:47;;;;;;;3.67;2.50;;;22.00;71.00;;;;;;6223904;28;94116;-62
2023/12/10 07:59:49;;;;;;;2.85;2.10;;;22.00;71.00;;;;;;6226212;28;95325;-62
2023/12/10 08:02:52;;;;;;;2.47;2.03;;;22.00;71.00;;;;;;6222672;28;94147;-62
2023/12/10 08:05:54;;;;;;;2.88;2.08;;;22.00;71.00;;;;;;6238909;28;94072;-62
2023/12/10 08:08:56;;;;;;;3.00;2.20;;;22.00;71.00;;;;;;6238788;28;94123;-62
2023/12/10 08:11:59;;;;;;;2.97;2.33;;;22.00;71.00;;;;;;6209133;28;94123;-62
2023/12/10 08:15:01;;;;;;;4.15;2.42;;;22.00;71.00;;;;;;6228060;28;94079;-62
2023/12/10 08:18:05;;;;;;;4.90;2.63;;;22.00;71.00;;;;;;6218340;28;94143;-61
2023/12/10 08:21:09;;;;;;;4.05;2.40;;;22.00;71.00;;;;;;6231369;28;93500;-62
2023/12/10 08:24:11;;;;;;;3.38;2.28;;;22.00;71.00;;;;;;6228765;28;94133;-62
2023/12/10 08:27:13;;;;;;;2.85;2.00;;;22.00;71.00;;;;;;6222323;28;94244;-62
2023/12/10 08:30:16;;;;;;;3.00;2.10;;;22.00;71.00;;;;;;6222867;28;95128;-62
2023/12/10 08:33:19;;;;;;;3.28;2.10;;;22.00;71.00;;;;;;6230404;28;94030;-62
2023/12/10 08:36:21;;;;;;;2.83;2.25;;;22.00;71.00;;;;;;6229400;28;94089;-62
2023/12/10 08:39:23;;;;;;;4.50;2.65;;;22.00;71.00;;;;;;6228761;28;94121;-62
2023/12/10 08:42:25;;;;;;;2.50;2.13;;;22.00;71.00;;;;;;6228627;28;94339;-62
2023/12/10 08:45:28;;;;;;;2.90;2.10;;;22.00;71.00;;;;;;6229337;28;92922;-62
2023/12/10 08:48:31;;;;;;;4.00;2.30;;;22.00;71.00;;;;;;6227307;28;94168;-62
2023/12/10 08:51:34;;;;;;;3.53;2.22;;;22.00;71.00;;;;;;6226761;28;93309;-62
2023/12/10 08:54:36;;;;;;;2.55;2.05;;;22.00;71.00;;;;;;6222181;28;94087;-62
2023/12/10 08:57:38;;;;;;;3.15;2.38;;;22.10;71.00;;;;;;6218467;28;94040;-62
2023/12/10 09:00:40;;;;;;;2.58;2.05;;;22.10;71.00;;;;;;6198680;28;95136;-62
2023/12/10 09:03:45;;;;;;;3.33;2.38;;;22.10;71.00;;;;;;6205769;28;94348;-62
2023/12/10 09:06:47;;;;;;;3.88;2.42;;;22.00;70.90;;;;;;6219836;28;94101;-62
2023/12/10 09:09:49;;;;;;;3.58;2.28;;;22.10;71.00;;;;;;6208116;28;94364;-62
2023/12/10 09:12:51;;;;;;;3.10;2.22;;;22.10;71.00;;;;;;6218323;28;94097;-62
2023/12/10 09:15:53;;;;;;;4.35;2.53;;;22.10;70.90;;;;;;6206222;28;93033;-62
2023/12/10 09:18:56;;;;;;;4.57;2.40;;;22.10;70.90;;;;;;6206426;28;94455;-62
2023/12/10 09:21:59;;;;;;;3.45;2.22;;;22.10;70.80;;;;;;6218690;28;93349;-62
2023/12/10 09:25:02;;;;;;;4.90;2.63;;;22.10;70.70;;;;;;6224212;28;94278;-62
2023/12/10 09:28:04;;;;;;;5.32;2.97;;;22.10;70.60;;;;;;6214104;28;94128;-62
2023/12/10 09:31:06;;;;;;;3.35;2.35;;;22.20;70.80;;;;;;6218135;28;95130;-62
2023/12/10 09:34:10;;;;;;;3.05;2.10;;;22.20;70.70;;;;;;6228911;28;94798;-62
2023/12/10 09:37:14;;;;;;;3.00;2.28;;;22.20;70.70;;;;;;6251505;28;94155;-62
2023/12/10 09:40:16;;;;;;;4.18;2.20;;;22.10;70.60;;;;;;6230549;28;93017;-62
2023/12/10 09:43:18;;;;;;;4.30;2.47;;;22.10;70.60;;;;;;6231035;28;94076;-62
2023/12/10 09:46:21;;;;;;;4.68;2.72;;;22.20;70.60;;;;;;6222498;28;94256;-62
2023/12/10 09:49:28;;;;;;;3.92;2.25;;;22.20;70.70;;;;;;6222497;28;94223;-62
2023/12/10 09:52:30;;;;;;;3.28;2.47;;;22.20;70.80;;;;;;6208069;28;93347;-62
2023/12/10 09:55:32;;;;;;;4.82;2.53;;;22.20;70.80;;;;;;6243731;28;94112;-62
2023/12/10 09:58:34;;;;;;;4.53;2.58;;;22.10;70.70;;;;;;6238291;28;94108;-62
2023/12/10 10:01:36;;;;;;;3.42;2.38;;;22.20;70.80;;;;;;6228353;28;95103;-62
2023/12/10 10:04:41;;;;;;;2.83;2.10;;;22.10;70.70;;;;;;6215963;28;95374;-62
2023/12/10 10:07:44;;;;;;;3.00;2.10;;;22.20;71.00;;;;;;6228535;28;94262;-62
2023/12/10 10:10:46;;;;;;;3.72;2.33;;;22.20;70.90;;;;;;6214953;28;94223;-63
2023/12/10 10:13:52;;;;;;;5.43;2.60;;;22.20;70.90;;;;;;6233192;28;94427;-62
2023/12/10 10:16:54;;;;;;;3.58;2.35;;;22.20;70.90;;;;;;6233660;28;94215;-62
2023/12/10 10:19:58;;;;;;;4.07;2.33;;;22.20;70.80;;;;;;6227503;28;92918;-62
2023/12/10 10:23:01;;;;;;;5.65;2.83;;;22.20;70.90;;;;;;6227296;28;93473;-62
2023/12/10 10:26:03;;;;;;;2.80;1.88;;;22.20;70.80;;;;;;6227588;28;94093;-62
2023/12/10 10:29:06;;;;;;;2.92;2.03;;;22.20;70.90;;;;;;6217713;28;94234;-62
2023/12/10 10:32:14;;;;;;;3.38;2.00;;;22.20;70.90;;;;;;6223106;28;95040;-63
2023/12/10 10:35:18;;;;;;;2.70;2.15;;;22.20;70.90;;;;;;6220328;28;94118;-63
2023/12/10 10:38:21;;;;;;;2.83;2.10;;;22.20;70.90;;;;;;6222266;28;94265;-62
2023/12/10 10:41:24;;;;;;;2.70;2.00;;;22.20;70.80;;;;;;6226578;28;94260;-62
2023/12/10 10:44:26;;;;;;;4.45;2.72;;;22.20;70.90;;;;;;6228477;28;94775;-63
2023/12/10 10:47:29;;;;;;;5.95;3.00;;;22.20;70.90;;;;;;6220581;28;94328;-62
2023/12/10 10:50:35;;;;;;;6.25;3.00;;;22.20;70.90;;;;;;6219844;28;94136;-62
2023/12/10 10:53:39;;;;;;;5.50;2.60;;;22.20;70.90;;;;;;6234571;28;93301;-62
2023/12/10 10:56:41;;;;;;;3.65;2.22;;;22.20;71.00;;;;;;6232731;28;94739;-62
2023/12/10 10:59:43;;;;;;;3.20;2.40;;;22.20;71.00;;;;;;6206108;28;94315;-62
2023/12/10 11:02:47;;;;;;;3.38;2.30;;;22.20;71.00;;;;;;6205966;28;95322;-62
2023/12/10 11:05:50;;;;;;;3.33;2.50;;;22.20;71.00;;;;;;6220432;28;94110;-62
2023/12/10 11:08:59;;;;;;;3.35;2.38;;;22.20;71.10;;;;;;6204832;28;94163;-62
2023/12/10 11:12:01;;;;;;;3.70;2.83;;;22.20;71.10;;;;;;6223991;28;94116;-62
2023/12/10 11:15:04;;;;;;;3.70;2.50;;;22.20;71.10;;;;;;6231384;28;94162;-62
2023/12/10 11:18:06;;;;;;;5.95;3.25;;;22.20;71.10;;;;;;6216823;28;94216;-62
2023/12/10 11:21:10;;;;;;;3.92;2.78;;;22.20;71.20;;;;;;6220614;28;94132;-62
2023/12/10 11:24:12;;;;;;;4.53;3.13;;;22.20;71.30;;;;;;6221477;28;93321;-63
2023/12/10 11:27:14;;;;;;;4.25;3.00;;;22.20;71.30;;;;;;6223502;28;94171;-63
2023/12/10 11:30:16;;;;;;;3.70;2.70;;;22.20;71.20;;;;;;6211900;28;94470;-62
2023/12/10 11:33:18;;;;;;;3.60;2.80;;;22.20;71.30;;;;;;6229702;28;95415;-62
2023/12/10 11:36:22;;;;;;;3.90;3.00;;;22.20;71.30;;;;;;6217566;28;94283;-62
2023/12/10 11:39:24;;;;;;;4.93;3.20;;;22.20;71.30;;;;;;6216709;28;94173;-62
2023/12/10 11:42:27;;;;;;;3.85;3.05;;;22.20;71.30;;;;;;6207917;28;94104;-62
2023/12/10 11:45:29;;;;;;;3.58;3.00;;;22.20;71.30;;;;;;6213839;28;94376;-63
2023/12/10 11:48:31;;;;;;;4.35;3.10;;;22.20;71.30;;;;;;6208198;28;94029;-62
2023/12/10 11:51:38;;;;;;;4.95;3.30;;;22.20;71.30;;;;;;6225263;28;94291;-62
2023/12/10 11:54:40;;;;;;;5.50;3.72;;;22.20;71.30;;;;;;6229641;28;93567;-62
2023/12/10 11:57:43;;;;;;;4.88;3.45;;;22.20;71.30;;;;;;6241745;28;94194;-62
2023/12/10 12:00:57;;;;;;;4.15;3.15;;;22.20;71.30;;;;;;6218140;28;94063;-62
2023/12/10 12:03:59;;;;;;;4.68;3.63;;;22.20;71.30;;;;;;6229653;28;94967;-63
2023/12/10 12:07:03;;;;;;;4.00;3.03;;;22.20;71.30;;;;;;6228721;28;94113;-62
2023/12/10 12:10:05;;;;;;;6.68;3.95;;;22.20;71.30;;;;;;6214951;28;95738;-63
2023/12/10 12:13:07;;;;;;;4.50;3.65;;;22.20;71.30;;;;;;6218992;28;94166;-62
2023/12/10 12:16:10;;;;;;;4.53;3.65;;;22.20;71.30;;;;;;6217873;28;94122;-63
2023/12/10 12:19:12;;;;;;;4.60;3.42;;;22.30;71.40;;;;;;6230271;28;94189;-63
2023/12/10 12:22:15;;;;;;;4.45;3.30;;;22.30;71.30;;;;;;6229922;28;93154;-63
2023/12/10 12:25:17;;;;;;;5.63;3.90;;;22.20;71.30;;;;;;6226112;28;93329;-63
2023/12/10 12:28:20;;;;;;;4.40;3.38;;;22.20;71.30;;;;;;6214209;28;94077;-63
2023/12/10 12:31:22;;;;;;;6.65;4.07;;;22.20;71.30;;;;;;6205043;28;94602;-63
2023/12/10 12:34:24;;;;;;;4.78;3.45;;;22.30;71.30;;;;;;6217730;28;95292;-63
2023/12/10 12:37:28;;;;;;;3.78;3.22;;;22.20;71.30;;;;;;6205569;28;94093;-63
2023/12/10 12:40:30;;;;;;;4.30;3.42;;;22.30;71.30;;;;;;6212007;28;93036;-63
2023/12/10 12:43:32;;;;;;;4.07;3.42;;;22.30;71.30;;;;;;6225557;28;94070;-63
2023/12/10 12:46:34;;;;;;;4.57;3.47;;;22.30;71.30;;;;;;6227538;28;94358;-63
2023/12/10 12:49:36;;;;;;;4.32;3.35;;;22.30;71.30;;;;;;6224027;28;94034;-63
2023/12/10 12:52:39;;;;;;;4.45;3.38;;;22.30;71.30;;;;;;6229268;28;93471;-63
2023/12/10 12:55:42;;;;;;;4.50;3.42;;;22.30;71.30;;;;;;6212591;28;93616;-60
2023/12/10 12:58:44;;;;;;;6.00;3.90;;;22.30;71.20;;;;;;6208017;28;94054;-63
2023/12/10 13:01:46;;;;;;;5.60;3.60;;;22.30;71.20;;;;;;6242006;28;92982;-63
2023/12/10 13:04:48;;;;;;;4.13;3.30;;;22.30;71.30;;;;;;6215911;28;95132;-60
2023/12/10 13:07:51;;;;;;;4.63;3.33;;;22.30;71.20;;;;;;6231126;28;94170;-60
2023/12/10 13:10:53;;;;;;;4.30;3.50;;;22.30;71.20;;;;;;6210310;28;94018;-60
2023/12/10 13:13:55;;;;;;;4.80;3.63;;;22.30;71.10;;;;;;6214016;28;94181;-63
2023/12/10 13:16:57;;;;;;;4.78;3.40;;;22.30;71.10;;;;;;6222686;28;94174;-63
2023/12/10 13:19:59;;;;;;;6.28;4.15;;;22.40;71.20;;;;;;6222468;28;94067;-63
2023/12/10 13:23:03;;;;;;;6.57;4.43;;;22.40;71.30;;;;;;6221621;28;94239;-62
2023/12/10 13:26:05;;;;;;;4.95;3.78;;;22.40;71.40;;;;;;6218580;28;93488;-62
2023/12/10 13:29:07;;;;;;;4.05;3.30;;;22.40;71.40;;;;;;6204187;28;94058;-63
2023/12/10 13:32:09;;;;;;;4.53;3.55;;;22.40;71.60;;;;;;6224485;28;94207;-62
2023/12/10 13:35:11;;;;;;;4.05;3.13;;;22.40;71.60;;;;;;6217062;28;95607;-63
2023/12/10 13:38:15;;;;;;;4.78;3.70;;;22.40;71.60;;;;;;6211854;28;94054;-61
2023/12/10 13:41:17;;;;;;;4.75;3.25;;;22.40;71.80;;;;;;6222267;28;94112;-61
2023/12/10 13:44:19;;;;;;;4.70;3.67;;;22.40;71.90;;;;;;6230443;28;94048;-63
2023/12/10 13:47:21;;;;;;;6.30;3.72;;;22.30;72.10;;;;;;6228231;28;94182;-63
2023/12/10 13:50:24;;;;;;;6.30;3.72;;;22.40;72.00;;;;;;6226964;28;94047;-63
2023/12/10 13:53:27;;;;;;;6.72;3.83;;;22.40;72.00;;;;;;6229508;28;94251;-63
2023/12/10 13:56:29;;;;;;;5.05;3.33;;;22.40;72.00;;;;;;6234092;28;93290;-63
2023/12/10 13:59:31;;;;;;;7.55;3.80;;;22.40;72.00;;;;;;6205968;28;95466;-62
2023/12/10 14:02:33;;;;;;;6.13;3.40;;;22.40;72.60;;;;;;6226429;28;94169;-63
2023/12/10 14:05:35;;;;;;;8.95;3.97;;;22.40;73.40;;;;;;6226939;28;95147;-63
2023/12/10 14:08:39;;;;;;;7.25;3.85;;;22.40;74.40;;;;;;6222008;28;94353;-60
2023/12/10 14:11:42;;;;;;;7.72;4.20;;;22.40;76.10;;;;;;6216894;28;94399;-60
2023/12/10 14:14:44;;;;;;;7.97;3.80;;;22.40;75.90;;;;;;6213543;28;94058;-61
2023/12/10 14:17:46;;;;;;;7.88;4.18;;;22.40;75.40;;;;;;6224859;28;94086;-60
2023/12/10 14:20:48;;;;;;;8.10;4.20;;;22.40;75.60;;;;;;6219714;28;93823;-60
2023/12/10 14:23:52;;;;;;;9.57;4.03;;;22.40;75.80;;;;;;6222198;28;94599;-61
2023/12/10 14:26:54;;;;;;;10.05;4.32;;;22.40;75.90;;;;;;6224048;28;93318;-61
2023/12/10 14:29:56;;;;;;;11.80;4.35;;;22.40;76.20;;;;;;6222706;28;94120;-61
2023/12/10 14:32:58;;;;;;;10.80;4.60;;;22.40;76.20;;;;;;6211418;28;94100;-60
2023/12/10 14:36:00;;;;;;;9.85;4.20;;;22.40;76.30;;;;;;6220243;28;94917;-60
2023/12/10 14:39:05;;;;;;;8.30;3.80;;;22.40;76.70;;;;;;6232524;28;94027;-61
2023/12/10 14:42:07;;;;;;;7.05;3.92;;;22.50;77.20;;;;;;6232281;28;94236;-61
2023/12/10 14:45:10;;;;;;;10.20;4.32;;;22.50;76.60;;;;;;6225151;28;94669;-60
2023/12/10 14:48:13;;;;;;;7.53;3.80;;;22.50;76.10;;;;;;6228144;28;94192;-61
2023/12/10 14:51:15;;;;;;;6.90;3.88;;;22.50;75.90;;;;;;6223757;28;92998;-61
2023/12/10 14:54:19;;;;;;;12.93;3.78;;;22.40;75.40;;;;;;6228441;28;94615;-60
2023/12/10 14:57:21;;;;;;;12.65;4.40;;;22.50;75.40;;;;;;6227469;28;93572;-62
2023/12/10 15:00:24;;;;;;;11.13;3.75;;;22.50;76.80;;;;;;6226705;28;94128;-62
2023/12/10 15:03:26;;;;;;;10.30;3.33;;;22.50;77.70;;;;;;6236162;28;94212;-62
2023/12/10 15:06:29;;;;;;;8.27;3.60;;;22.50;76.60;;;;;;6224331;28;94996;-62
2023/12/10 15:09:33;;;;;;;7.65;3.20;;;22.50;75.70;;;;;;6222316;28;94154;-62
2023/12/10 15:12:35;;;;;;;12.95;5.22;;;22.50;75.10;;;;;;6228062;28;94417;-62
2023/12/10 15:15:37;;;;;;;24.50;7.65;;;22.50;75.00;;;;;;6230115;28;94194;-62
2023/12/10 15:18:39;;;;;;;37.67;10.65;;;22.50;75.10;;;;;;6231712;28;94245;-62
2023/12/10 15:21:41;;;;;;;32.03;9.98;;;22.50;75.70;;;;;;6224333;28;94677;-62
2023/12/10 15:24:46;;;;;;;31.67;9.98;;;22.50;76.20;;;;;;6224180;28;93982;-62
2023/12/10 15:27:48;;;;;;;29.70;9.75;;;22.50;76.60;;;;;;6234128;28;93428;-63
2023/12/10 15:30:52;;;;;;;25.75;9.43;;;22.50;76.70;;;;;;6230176;28;93475;-62
2023/12/10 15:33:54;;;;;;;22.25;8.25;;;22.50;76.70;;;;;;6230010;28;94091;-62
2023/12/10 15:36:56;;;;;;;20.98;7.65;;;22.50;76.30;;;;;;6236393;28;94977;-62
2023/12/10 15:40:00;;;;;;;22.55;8.15;;;22.50;76.00;;;;;;6223966;28;94026;-62
2023/12/10 15:43:03;;;;;;;21.85;7.38;;;22.50;75.80;;;;;;6222468;28;94192;-62
2023/12/10 15:46:05;;;;;;;28.05;8.50;;;22.50;75.60;;;;;;6236048;28;94018;-62
2023/12/10 15:49:07;;;;;;;23.27;7.70;;;22.50;75.60;;;;;;6229551;28;94087;-62